• Join FlightAware (Why Join?)
  • Login
  • US Flag 
01:33PM EDT


 

Airport Tracker/Info


-or-


 

Live Flight TrackerFlight Track Log ✈ GJS6221 ✈ 24-Jun-2013 ✈ CYUL - KLGA

Flight Track Log - Related Links

Times and Time Zones

All times are in EDT time to prevent confusion due to time zone crossing. See the GJS6221 flight status page for this flight to view local times or setup timezone preferences in your user account.

Time Position Orientation Groundspeed Altitude Reporting Facility
EDT Latitude Longitude Course Direction KTS MPH feet Rate Location/Type
07:21AM 45.4475 -73.7536 207° Southwest 463 533 1,700  Level Boston Center
07:22AM 45.4031 -73.8058 220° Southwest 332 382 4,000 2,400 Climbing Boston Center
07:23AM 45.3319 -73.8425 200° South 296 341 6,500 3,120 Climbing Boston Center
07:24AM 45.2544 -73.8789 198° South 286 329 10,300 2,700 Climbing Boston Center
07:25AM 45.1683 -73.9208 199° South 305 351 12,000 1,740 Climbing Boston Center
07:26AM 44.9855 -74.0818 207° Southwest  Level FlightAware Approximate
07:26AM 45.0719 -73.9714 200° South 345 397 13,900  Level Boston Center
07:27AM 44.9567 -74.0269 199° South 383 441 16,200 2,160 Climbing Boston Center
07:28AM 44.8497 -74.0767 198° South 410 472 18,300 1,920 Climbing Boston Center
07:29AM 44.7311 -74.0675 177° South 417 480 20,100 1,680 Climbing Boston Center
07:30AM 44.6231 -74.0531 175° South 425 489 21,800 1,680 Climbing Boston Center
07:31AM 44.5003 -74.0381 175° South 436 502 23,500 1,800 Climbing Boston Center
07:32AM 44.3650 -74.0197 174° South 441 507 25,400 1,740 Climbing Boston Center
07:33AM 44.2444 -74.0050 175° South 441 507 27,000 1,260 Climbing Boston Center
07:34AM 44.1383 -73.9906 174° South 441 507 28,000 1,140 Climbing Boston Center
07:35AM 44.0031 -73.9697 174° South 441 507 29,300 900 Climbing Boston Center
07:36AM 43.9033 -73.9528 173° South 441 507 29,900 300 Climbing Boston Center
07:37AM 43.7514 -73.9375 176° South 448 516 30,000  Climbing Boston Center
07:38AM 43.6244 -73.9200 174° South 459 528 30,000 -480 Level Boston Center
07:39AM 43.4997 -73.9028 174° South 459 528 29,100 -960 Descending Boston Center
07:40AM 43.3750 -73.8883 175° South 459 528 28,200 -840 Descending Boston Center
07:41AM 43.2750 -73.8744 174° South 459 528 27,500 -600 Descending Boston Center
07:42AM 43.1231 -73.8539 174° South 459 528 27,000 -600 Descending Boston Center
07:43AM 42.9756 -73.8333 174° South 459 528 26,300 -840 Descending Boston Center
07:44AM 42.8464 -73.8192 175° South 459 528 25,200 -660 Descending Boston Center
07:45AM 42.7217 -73.8022 174° South 459 528 25,000 -540 Descending Boston Center
07:46AM 42.6175 -73.7831 172° South 465 535 24,200 -780 Descending Boston Center
07:47AM 42.4742 -73.7489 170° South 457 526 23,500 -1,140 Descending Boston Center
07:48AM 42.3847 -73.7303 171° South 450 518 22,000 -1,560 Descending Boston Center
07:49AM 42.2556 -73.7247 178° South 404 465 20,400 -1,260 Descending Boston Center
07:50AM 42.1431 -73.7308 182° South 399 459 19,500 -900 Descending Boston Center
07:51AM 42.0386 -73.7372 183° South 411 473 18,700 -900 Descending Boston Center
07:52AM 41.9114 -73.7511 185° South 424 488 17,700 -1,080 Descending Boston Center
07:53AM 41.8258 -73.7550 182° South 377 434 16,600 -1,380 Descending Boston Center
07:54AM 41.7300 -73.7669 185° South 325 374 15,000 -1,560 Descending Boston Center
07:55AM 41.6506 -73.7736 184° South 315 362 13,500 -1,500 Descending Boston Center
07:57AM 41.5361 -73.8430 190° South  Level FlightAware Approximate
07:57AM 41.4833 -73.7833 190° South 298 343 10,700  Level New York TRACON
07:58AM 41.4000 -73.8000 189° South 292 336 9,300 -1,380 Descending New York TRACON
07:59AM 41.3167 -73.7667 163° South 298 343 8,000 -660 Descending New York TRACON
08:00AM 41.2500 -73.7167 151° Southeast 295 339 8,000 -60 Level New York TRACON
08:01AM 41.1833 -73.6500 143° Southeast 293 337 7,900 -900 Descending New York TRACON
08:02AM 41.1167 -73.6000 151° Southeast 278 320 6,200 -1,740 Descending New York TRACON
08:03AM 41.0500 -73.6500 209° Southwest 269 310 4,500 -1,140 Descending New York TRACON
08:04AM 41.0000 -73.7000 217° Southwest 234 269 4,000 -780 Descending New York TRACON
08:05AM 40.9500 -73.7333 207° Southwest 197 227 3,000 -600 Descending New York TRACON
08:06AM 40.9167 -73.7667 217° Southwest 188 216 2,900 -660 Descending New York TRACON
08:07AM 40.8667 -73.8000 207° Southwest 185 213 1,800 -1,140 Descending New York TRACON